createdAt,value
2023-05-11T00:00:06.718Z,10.4
2023-05-11T00:01:06.569Z,10
2023-05-11T00:02:07.017Z,10.4
2023-05-11T00:03:06.556Z,10.4
2023-05-11T00:04:06.653Z,10.4
2023-05-11T00:05:06.596Z,10.4
2023-05-11T00:06:06.152Z,10
2023-05-11T00:07:06.186Z,10.4
2023-05-11T00:08:06.398Z,10.4
2023-05-11T00:09:06.811Z,10
2023-05-11T00:10:06.204Z,10
2023-05-11T00:11:06.454Z,10.4
2023-05-11T00:12:05.958Z,10.4
2023-05-11T00:13:07.029Z,10.4
2023-05-11T00:14:06.189Z,10.4
2023-05-11T00:15:06.419Z,10.4
2023-05-11T00:16:07.182Z,10.4
2023-05-11T00:17:06.267Z,10
2023-05-11T00:18:06.498Z,10
2023-05-11T00:19:06.960Z,10.4
2023-05-11T00:20:06.108Z,10.4
2023-05-11T00:21:06.400Z,10.4
2023-05-11T00:22:06.595Z,10.4
2023-05-11T00:23:05.977Z,10
2023-05-11T00:24:06.461Z,10.4
2023-05-11T00:25:06.658Z,10.4
2023-05-11T00:26:06.270Z,10.4
2023-05-11T00:27:06.291Z,10.4
2023-05-11T00:28:06.677Z,10
2023-05-11T00:29:06.106Z,10.4
2023-05-11T00:30:06.030Z,10.4
2023-05-11T00:31:06.764Z,10.4
2023-05-11T00:32:06.843Z,10
2023-05-11T00:33:06.351Z,10
2023-05-11T00:34:06.386Z,10
2023-05-11T00:35:06.406Z,10.4
2023-05-11T00:36:06.961Z,10.4
2023-05-11T00:37:06.184Z,10.4
2023-05-11T00:38:06.397Z,10.4
2023-05-11T00:39:06.655Z,10.4
2023-05-11T00:40:06.889Z,10.4
2023-05-11T00:41:06.273Z,10.4
2023-05-11T00:42:05.429Z,10.3
2023-05-11T00:43:06.416Z,10.4
2023-05-11T00:44:06.824Z,10.4
2023-05-11T00:46:06.539Z,10.4
2023-05-11T00:47:06.938Z,10.3
2023-05-11T00:48:07.411Z,10.3
2023-05-11T00:49:06.187Z,10.4
2023-05-11T00:50:06.611Z,10.4
2023-05-11T00:51:06.775Z,10.3
2023-05-11T00:52:07.022Z,10.3
2023-05-11T00:53:06.256Z,10.3
2023-05-11T00:54:06.607Z,10.3
2023-05-11T00:55:06.635Z,10.3
2023-05-11T00:56:06.746Z,10.3
2023-05-11T00:57:06.918Z,10.3
2023-05-11T00:58:06.049Z,10.3
2023-05-11T00:59:06.250Z,10.3
2023-05-11T01:00:06.872Z,10.3
2023-05-11T01:01:06.430Z,10.3
2023-05-11T01:04:06.674Z,10.3
2023-05-11T01:05:06.871Z,10.3
2023-05-11T01:06:06.707Z,10.3
2023-05-11T01:07:06.827Z,10.3
2023-05-11T01:08:05.800Z,10.3
2023-05-11T01:09:06.852Z,10.3
2023-05-11T01:10:06.376Z,10.3
2023-05-11T01:14:05.692Z,10.3
2023-05-11T01:15:07.003Z,10.3
2023-05-11T01:16:06.060Z,10.3
2023-05-11T01:17:06.537Z,10.3
2023-05-11T01:18:06.667Z,10.3
2023-05-11T01:19:07.222Z,10.3
2023-05-11T01:21:06.366Z,10.2
2023-05-11T01:22:06.411Z,10.2
2023-05-11T01:23:06.623Z,10.3
2023-05-11T01:24:06.845Z,10.2
2023-05-11T01:25:06.087Z,10.2
2023-05-11T01:26:06.386Z,10.2
2023-05-11T01:27:06.408Z,10.2
2023-05-11T01:28:06.667Z,10.2
2023-05-11T01:29:05.967Z,10.2
2023-05-11T01:30:06.313Z,10.2
2023-05-11T01:31:06.656Z,10.2
2023-05-11T01:32:06.895Z,10.2
2023-05-11T01:33:06.274Z,10.2
2023-05-11T01:34:06.496Z,10.2
2023-05-11T01:35:06.778Z,10.2
2023-05-11T01:36:06.667Z,10.2
2023-05-11T01:37:06.105Z,10.2
2023-05-11T01:41:06.828Z,10.2
2023-05-11T01:42:06.036Z,10.2
2023-05-11T01:43:06.535Z,10
2023-05-11T01:44:06.806Z,10.2
2023-05-11T01:45:06.247Z,10.2
2023-05-11T01:46:06.444Z,10.2
2023-05-11T01:47:06.744Z,10.2
2023-05-11T01:48:07.512Z,10.2
2023-05-11T01:49:06.105Z,10.2
2023-05-11T01:50:06.551Z,10.2
2023-05-11T01:51:06.502Z,10.2
2023-05-11T01:52:06.967Z,10.2
2023-05-11T01:53:05.992Z,10.2
2023-05-11T01:54:06.493Z,10.2
2023-05-11T01:55:07.003Z,10.2
2023-05-11T01:56:06.256Z,10.2
2023-05-11T01:57:06.326Z,10.2
2023-05-11T01:58:06.646Z,10.2
2023-05-11T01:59:07.091Z,10.2
2023-05-11T02:00:06.280Z,10.2
2023-05-11T02:01:05.966Z,10.2
2023-05-11T02:02:06.772Z,10.2
2023-05-11T02:04:05.621Z,10.1
2023-05-11T02:05:06.699Z,10.1
2023-05-11T02:06:06.727Z,10.1
2023-05-11T02:07:06.612Z,10
2023-05-11T02:08:06.151Z,10
2023-05-11T02:09:06.444Z,10.1
2023-05-11T02:10:06.747Z,10.1
2023-05-11T02:11:06.934Z,10.1
2023-05-11T02:12:06.138Z,10.1
2023-05-11T02:13:06.359Z,10.1
2023-05-11T02:14:06.614Z,10.1
2023-05-11T02:15:06.925Z,10.1
2023-05-11T02:16:05.851Z,10.1
2023-05-11T02:17:06.344Z,10.1
2023-05-11T02:18:06.940Z,10.1
2023-05-11T02:19:06.968Z,10.1
2023-05-11T02:24:06.416Z,10.1
2023-05-11T02:25:06.737Z,10.1
2023-05-11T02:26:07.025Z,10.1
2023-05-11T02:27:06.304Z,10.1
2023-05-11T02:28:06.683Z,10.1
2023-05-11T02:29:06.927Z,10.1
2023-05-11T02:30:06.058Z,10
2023-05-11T02:31:06.447Z,10.1
2023-05-11T02:32:06.702Z,10
2023-05-11T02:33:06.124Z,10
2023-05-11T02:34:05.105Z,10.1
2023-05-11T02:35:06.465Z,10.1
2023-05-11T02:36:06.764Z,10.1
2023-05-11T02:37:06.870Z,10.1
2023-05-11T02:42:06.093Z,10.1
2023-05-11T02:43:06.308Z,10.1
2023-05-11T02:44:06.503Z,10.1
2023-05-11T02:45:06.053Z,10
2023-05-11T02:46:06.442Z,10.1
2023-05-11T02:47:06.709Z,10
2023-05-11T02:48:07.061Z,10.1
2023-05-11T02:49:07.077Z,10.1
2023-05-11T02:50:06.307Z,10.1
2023-05-11T02:51:06.616Z,10.1
2023-05-11T02:52:06.945Z,10.1
2023-05-11T02:53:06.257Z,10.1
2023-05-11T02:54:06.527Z,10.1
2023-05-11T02:55:06.819Z,10.1
2023-05-11T02:56:06.226Z,10.1
2023-05-11T02:57:06.718Z,10.1
2023-05-11T02:58:07.142Z,10.1
2023-05-11T02:59:06.002Z,10.1
2023-05-11T03:00:06.377Z,10.1
2023-05-11T03:01:06.397Z,10.1
2023-05-11T03:02:06.856Z,10.1
2023-05-11T03:03:06.941Z,10
2023-05-11T03:05:06.408Z,10.1
2023-05-11T03:06:05.341Z,10.2
2023-05-11T03:07:06.572Z,10.1
2023-05-11T03:08:06.479Z,10.1
2023-05-11T03:09:06.844Z,10.1
2023-05-11T03:10:06.486Z,10.2
2023-05-11T03:12:06.527Z,10.1
2023-05-11T03:13:06.876Z,10.2
2023-05-11T03:14:05.987Z,10
2023-05-11T03:15:06.219Z,10.2
2023-05-11T03:16:06.573Z,10.2
2023-05-11T03:17:06.779Z,10.2
2023-05-11T03:18:06.053Z,10.2
2023-05-11T03:19:06.690Z,10.2
2023-05-11T03:20:06.178Z,10
2023-05-11T03:21:06.859Z,10
2023-05-11T03:22:06.134Z,10.2
2023-05-11T03:23:06.338Z,10.2
2023-05-11T03:24:06.437Z,10.2
2023-05-11T03:25:07.052Z,10.2
2023-05-11T03:26:06.130Z,10.2
2023-05-11T03:27:06.457Z,10.2
2023-05-11T03:28:06.776Z,10.2
2023-05-11T03:29:06.114Z,10.2
2023-05-11T03:30:06.247Z,10.2
2023-05-11T03:31:06.481Z,10.2
2023-05-11T03:32:05.981Z,10.2
2023-05-11T03:33:06.975Z,10.2
2023-05-11T03:34:06.035Z,10.2
2023-05-11T03:35:06.458Z,10.2
2023-05-11T03:36:06.770Z,10.2
2023-05-11T03:39:06.285Z,10.2
2023-05-11T03:40:06.584Z,10.2
2023-05-11T03:41:06.667Z,10.2
2023-05-11T03:42:06.958Z,10
2023-05-11T03:43:06.036Z,10.2
2023-05-11T03:44:06.653Z,10.2
2023-05-11T03:45:07.007Z,10.2
2023-05-11T03:46:06.546Z,10.2
2023-05-11T03:48:06.846Z,10.2
2023-05-11T03:49:07.007Z,10.2
2023-05-11T03:50:06.298Z,10.2
2023-05-11T03:51:06.712Z,10
2023-05-11T03:52:06.866Z,10.2
2023-05-11T03:53:07.097Z,10.2
2023-05-11T03:54:06.035Z,10.2
2023-05-11T03:55:06.849Z,10.2
2023-05-11T03:56:06.052Z,10.2
2023-05-11T03:57:06.486Z,10.2
2023-05-11T03:58:08.719Z,10.2
2023-05-11T03:59:06.724Z,10.2
2023-05-11T04:01:06.362Z,10.2
2023-05-11T04:03:06.914Z,10.2
2023-05-11T04:04:07.249Z,10.2
2023-05-11T04:05:06.148Z,10.2
2023-05-11T04:06:06.187Z,10.2
2023-05-11T04:07:06.423Z,10.2
2023-05-11T04:08:06.736Z,10.2
2023-05-11T04:09:05.976Z,10.2
2023-05-11T04:10:06.289Z,10.2
2023-05-11T04:11:06.151Z,10.2
2023-05-11T04:12:06.300Z,10.2
2023-05-11T04:13:06.772Z,10.2
2023-05-11T04:14:06.861Z,10.2
2023-05-11T04:15:06.175Z,10.2
2023-05-11T04:16:06.562Z,10.2
2023-05-11T04:17:06.614Z,10.2
2023-05-11T04:19:06.968Z,10.2
2023-05-11T04:20:06.792Z,10.2
2023-05-11T04:21:06.954Z,10.2
2023-05-11T04:22:05.698Z,10.2
2023-05-11T04:23:07.746Z,10.2
2023-05-11T04:24:06.872Z,10.2
2023-05-11T04:25:06.014Z,10.2
2023-05-11T04:26:06.766Z,10.2
2023-05-11T04:27:06.893Z,10.2
2023-05-11T04:28:06.082Z,10.2
2023-05-11T04:29:06.341Z,10.2
2023-05-11T04:30:06.542Z,10.2
2023-05-11T04:31:06.863Z,10
2023-05-11T04:32:06.274Z,10
2023-05-11T04:33:06.785Z,10
2023-05-11T04:34:06.468Z,10.2
2023-05-11T04:35:06.788Z,10.2
2023-05-11T04:36:06.906Z,10.2
2023-05-11T04:37:06.173Z,10.2
2023-05-11T04:38:06.509Z,10.2
2023-05-11T04:41:05.978Z,10.2
2023-05-11T04:42:06.243Z,10.2
2023-05-11T04:43:06.438Z,10
2023-05-11T04:44:06.761Z,10.2
2023-05-11T04:45:06.136Z,10.2
2023-05-11T04:46:06.333Z,10.2
2023-05-11T04:47:06.705Z,10.2
2023-05-11T04:49:06.867Z,10.2
2023-05-11T04:50:06.250Z,10.2
2023-05-11T04:51:06.561Z,10.2
2023-05-11T04:52:06.656Z,10.2
2023-05-11T04:53:06.961Z,10.2
2023-05-11T04:54:06.186Z,10.2
2023-05-11T04:55:06.523Z,10.2
2023-05-11T04:56:06.477Z,10.2
2023-05-11T04:57:06.082Z,10.2
2023-05-11T04:59:09.556Z,10.2
2023-05-11T05:01:05.380Z,10.2
2023-05-11T05:02:06.792Z,10
2023-05-11T05:03:06.052Z,10.2
2023-05-11T05:04:05.190Z,10.2
2023-05-11T05:05:06.940Z,10.2
2023-05-11T05:06:06.353Z,10.2
2023-05-11T05:07:06.678Z,10.2
2023-05-11T05:08:06.866Z,10.2
2023-05-11T05:09:06.204Z,10.2
2023-05-11T05:10:06.517Z,10.2
2023-05-11T05:11:06.407Z,10.2
2023-05-11T05:12:06.747Z,10.3
2023-05-11T05:18:06.300Z,10.3
2023-05-11T05:19:06.871Z,10.2
2023-05-11T05:20:06.927Z,10.3
2023-05-11T05:21:06.475Z,10.2
2023-05-11T05:22:06.570Z,10.2
2023-05-11T05:23:06.801Z,10.3
2023-05-11T05:24:06.945Z,10.3
2023-05-11T05:25:06.288Z,10.3
2023-05-11T05:26:06.437Z,10.2
2023-05-11T05:27:06.792Z,10.3
2023-05-11T05:28:07.041Z,10.3
2023-05-11T05:29:06.084Z,10.2
2023-05-11T05:30:05.596Z,10.3
2023-05-11T05:31:06.789Z,10.3
2023-05-11T05:35:06.360Z,10.2
2023-05-11T05:36:06.507Z,10.3
2023-05-11T05:37:06.675Z,10.3
2023-05-11T05:38:06.923Z,10.3
2023-05-11T05:39:06.021Z,10.3
2023-05-11T05:40:06.327Z,10.3
2023-05-11T05:41:06.522Z,10
2023-05-11T05:42:06.938Z,10.3
2023-05-11T05:43:06.144Z,10.3
2023-05-11T05:44:06.568Z,10.3
2023-05-11T05:45:06.000Z,10.3
2023-05-11T05:46:06.307Z,10.3
2023-05-11T05:47:06.428Z,10.4
2023-05-11T05:48:07.078Z,10.4
2023-05-11T05:49:06.711Z,10.4
2023-05-11T05:50:06.007Z,10.4
2023-05-11T05:51:06.588Z,10.4
2023-05-11T05:52:06.831Z,10.4
2023-05-11T05:56:06.049Z,10.4
2023-05-11T05:57:06.880Z,10.4
2023-05-11T05:58:06.375Z,10.4
2023-05-11T05:59:06.701Z,10.4
2023-05-11T06:00:06.881Z,10.4
2023-05-11T06:01:06.198Z,10.4
2023-05-11T06:02:05.769Z,10.4
2023-05-11T06:03:06.208Z,10.4
2023-05-11T06:04:06.636Z,10.4
2023-05-11T06:05:06.920Z,10.4
2023-05-11T06:06:06.923Z,10.4
2023-05-11T06:07:06.024Z,10.4
2023-05-11T06:08:15.305Z,10.4
2023-05-11T06:10:06.884Z,10.4
2023-05-11T06:12:06.477Z,10.5
2023-05-11T06:13:06.400Z,10.5
2023-05-11T06:14:07.007Z,10.6
2023-05-11T06:15:06.421Z,10.6
2023-05-11T06:16:06.636Z,10.6
2023-05-11T06:17:06.488Z,10.5
2023-05-11T06:18:06.202Z,10.5
2023-05-11T06:19:06.309Z,10.5
2023-05-11T06:20:06.678Z,10.6
2023-05-11T06:22:09.281Z,10.6
2023-05-11T06:25:06.477Z,10.6
2023-05-11T06:26:05.441Z,10.6
2023-05-11T06:27:06.810Z,10.6
2023-05-11T06:29:05.206Z,10.6
2023-05-11T06:30:06.271Z,10.6
2023-05-11T06:31:06.747Z,10
2023-05-11T06:32:07.202Z,10
2023-05-11T06:33:06.145Z,10.6
2023-05-11T06:34:06.470Z,10.6
2023-05-11T06:35:06.835Z,10.7
2023-05-11T06:36:09.323Z,10.6
2023-05-11T06:41:06.269Z,10
2023-05-11T06:42:08.921Z,10.7
2023-05-11T06:43:06.706Z,10.7
2023-05-11T06:44:06.958Z,10.7
2023-05-11T06:45:06.218Z,10.8
2023-05-11T06:46:06.809Z,10.8
2023-05-11T06:47:06.540Z,10.8
2023-05-11T06:48:06.131Z,10
2023-05-11T06:49:06.383Z,10
2023-05-11T06:50:06.540Z,10.8
2023-05-11T06:51:06.589Z,10.8
2023-05-11T06:52:07.012Z,10.8
2023-05-11T06:53:06.190Z,10.8
2023-05-11T06:54:06.430Z,10.8
2023-05-11T06:55:06.922Z,10.8
2023-05-11T06:56:06.284Z,10.8
2023-05-11T06:57:06.405Z,10.8
2023-05-11T06:58:05.659Z,10.9
2023-05-11T06:59:07.058Z,10.9
2023-05-11T07:00:06.154Z,10.9
2023-05-11T07:01:06.446Z,10.9
2023-05-11T07:02:06.544Z,10.9
2023-05-11T07:03:07.140Z,10.9
2023-05-11T07:04:06.483Z,10.9
2023-05-11T07:05:06.705Z,11
2023-05-11T07:06:05.837Z,10
2023-05-11T07:07:06.412Z,11.1
2023-05-11T07:08:06.372Z,11
2023-05-11T07:09:06.983Z,10
2023-05-11T07:10:06.171Z,10
2023-05-11T07:11:06.515Z,11.1
2023-05-11T07:12:06.693Z,11.1
2023-05-11T07:13:06.929Z,11.1
2023-05-11T07:14:06.110Z,11.1
2023-05-11T07:15:06.153Z,11.1
2023-05-11T07:16:06.638Z,11.1
2023-05-11T07:17:06.416Z,11.1
2023-05-11T07:18:06.465Z,11.1
2023-05-11T07:19:06.743Z,11.2
2023-05-11T07:20:06.952Z,11.2
2023-05-11T07:21:05.947Z,11.2
2023-05-11T07:24:06.544Z,11.2
2023-05-11T07:25:05.104Z,11.2
2023-05-11T07:26:05.995Z,11.2
2023-05-11T07:27:06.305Z,11.2
2023-05-11T07:28:06.617Z,11.2
2023-05-11T07:29:06.677Z,11.2
2023-05-11T07:30:06.078Z,11.2
2023-05-11T07:31:06.357Z,11.2
2023-05-11T07:32:06.403Z,11.2
2023-05-11T07:33:06.779Z,11.3
2023-05-11T07:34:05.998Z,11.3
2023-05-11T07:35:06.333Z,11.3
2023-05-11T07:36:06.598Z,11.4
2023-05-11T07:37:07.036Z,11
2023-05-11T07:38:06.272Z,11.4
2023-05-11T07:39:06.665Z,11.4
2023-05-11T07:40:06.992Z,11.4
2023-05-11T07:41:10.929Z,11.4
2023-05-11T07:43:06.716Z,11.4
2023-05-11T07:44:06.814Z,11.4
2023-05-11T07:45:07.024Z,11.4
2023-05-11T07:46:06.325Z,11.4
2023-05-11T07:47:06.508Z,11.4
2023-05-11T07:48:07.123Z,11.4
2023-05-11T07:49:25.366Z,11.4
2023-05-11T07:51:06.795Z,11.4
2023-05-11T07:52:07.086Z,11.4
2023-05-11T07:53:06.175Z,11
2023-05-11T07:54:06.660Z,11.5
2023-05-11T07:55:06.946Z,11.5
2023-05-11T07:56:06.649Z,11.5
2023-05-11T07:57:06.362Z,11.5
2023-05-11T07:58:06.773Z,11
2023-05-11T07:59:06.846Z,11
2023-05-11T08:00:06.100Z,11.6
2023-05-11T08:01:06.294Z,11.5
2023-05-11T08:02:07.053Z,11.5
2023-05-11T08:03:06.152Z,11.5
2023-05-11T08:04:06.289Z,11.5
2023-05-11T08:05:06.708Z,11.5
2023-05-11T08:07:06.036Z,11.5
2023-05-11T08:08:06.376Z,11.5
2023-05-11T08:09:06.667Z,11.5
2023-05-11T08:10:06.777Z,11.5
2023-05-11T08:11:07.027Z,11.6
2023-05-11T08:12:06.596Z,11
2023-05-11T08:13:06.699Z,11.6
2023-05-11T08:14:06.057Z,11.5
2023-05-11T08:15:06.661Z,11.5
2023-05-11T08:20:37.361Z,11.6
2023-05-11T08:20:44.434Z,11.6
2023-05-11T08:21:40.354Z,11.6
2023-05-11T08:23:06.172Z,11.6
2023-05-11T08:24:06.254Z,11.6
2023-05-11T08:25:06.824Z,11.6
2023-05-11T08:26:06.718Z,11.7
2023-05-11T08:27:06.262Z,11.7
2023-05-11T08:28:06.475Z,11.7
2023-05-11T08:29:06.637Z,11.7
2023-05-11T08:30:07.225Z,11.7
2023-05-11T08:31:06.611Z,11.8
2023-05-11T08:32:07.027Z,11.8
2023-05-11T08:32:11.224Z,11.6
2023-05-11T08:33:34.254Z,11.7
2023-05-11T08:35:06.762Z,11.8
2023-05-11T08:36:06.417Z,11.8
2023-05-11T08:37:06.653Z,11.8
2023-05-11T08:38:06.066Z,11.8
2023-05-11T08:39:06.235Z,11.8
2023-05-11T08:40:06.507Z,11.8
2023-05-11T08:41:06.341Z,11.8
2023-05-11T08:42:06.599Z,11.9
2023-05-11T08:43:06.065Z,11.9
2023-05-11T08:44:06.374Z,11.8
2023-05-11T08:45:06.554Z,11.8
2023-05-11T08:46:06.396Z,11.8
2023-05-11T08:47:26.312Z,11.8
2023-05-11T08:49:06.365Z,11.8
2023-05-11T08:50:05.431Z,11.8
2023-05-11T08:51:06.172Z,11.9
2023-05-11T08:52:08.169Z,11.9
2023-05-11T08:55:06.211Z,11.9
2023-05-11T08:56:06.136Z,11.9
2023-05-11T08:57:06.431Z,11.9
2023-05-11T08:58:06.459Z,11.9
2023-05-11T08:59:06.838Z,11.9
2023-05-11T09:00:06.197Z,11
2023-05-11T09:01:06.477Z,11.9
2023-05-11T09:02:06.726Z,12
2023-05-11T09:03:06.855Z,12
2023-05-11T09:04:06.066Z,11.9
2023-05-11T09:05:06.434Z,11.9
2023-05-11T09:07:06.772Z,12
2023-05-11T09:08:06.065Z,12
2023-05-11T09:09:06.396Z,12
2023-05-11T09:10:06.840Z,12.1
2023-05-11T09:11:06.254Z,12.1
2023-05-11T09:12:06.522Z,12.1
2023-05-11T09:13:05.934Z,12.1
2023-05-11T09:14:06.055Z,12.2
2023-05-11T09:15:07.096Z,12.2
2023-05-11T09:16:11.469Z,12.2
2023-05-11T09:17:06.826Z,12.2
2023-05-11T09:18:06.828Z,12.2
2023-05-11T09:19:07.368Z,12.2
2023-05-11T09:20:06.190Z,12.2
2023-05-11T09:21:06.431Z,12.3
2023-05-11T09:22:06.814Z,12.3
2023-05-11T09:23:06.688Z,12.3
2023-05-11T09:27:06.054Z,12.3
2023-05-11T09:28:06.297Z,12.3
2023-05-11T09:29:07.892Z,12.3
2023-05-11T09:30:06.993Z,12.3
2023-05-11T09:31:06.610Z,12.3
2023-05-11T09:32:06.760Z,12.2
2023-05-11T09:33:07.123Z,12.1
2023-05-11T09:34:06.294Z,12.2
2023-05-11T09:35:06.603Z,12.2
2023-05-11T09:39:06.831Z,12
2023-05-11T09:40:26.129Z,12.1
2023-05-11T09:42:06.701Z,12
2023-05-11T09:43:06.308Z,12
2023-05-11T09:44:06.388Z,12
2023-05-11T09:45:06.413Z,12
2023-05-11T09:46:06.289Z,12
2023-05-11T09:47:06.783Z,12
2023-05-11T09:49:05.146Z,11
2023-05-11T09:50:06.442Z,12
2023-05-11T09:51:06.195Z,12
2023-05-11T09:52:05.073Z,12
2023-05-11T09:53:06.313Z,12
2023-05-11T09:54:06.563Z,12
2023-05-11T09:55:07.185Z,11.9
2023-05-11T09:56:06.718Z,12
2023-05-11T09:57:06.933Z,11.9
2023-05-11T09:58:06.012Z,11.9
2023-05-11T09:59:06.399Z,11.9
2023-05-11T10:00:06.657Z,11.9
2023-05-11T10:01:06.936Z,11.8
2023-05-11T10:02:06.185Z,11.9
2023-05-11T10:03:06.653Z,11.8
2023-05-11T10:04:24.052Z,11.8
2023-05-11T10:06:06.744Z,11.8
2023-05-11T10:07:06.088Z,11.8
2023-05-11T10:08:06.404Z,11.9
2023-05-11T10:09:06.523Z,11.9
2023-05-11T10:10:06.841Z,12
2023-05-11T10:11:06.747Z,11
2023-05-11T10:12:06.986Z,11
2023-05-11T10:13:06.617Z,11
2023-05-11T10:14:06.364Z,12
2023-05-11T10:17:05.677Z,12.1
2023-05-11T10:18:06.638Z,12.1
2023-05-11T10:19:06.953Z,12.1
2023-05-11T10:20:06.895Z,12.2
2023-05-11T10:22:06.720Z,12.2
2023-05-11T10:23:06.812Z,12.2
2023-05-11T10:24:07.015Z,11
2023-05-11T10:25:06.225Z,12.2
2023-05-11T10:26:06.162Z,12.2
2023-05-11T10:27:06.378Z,12.2
2023-05-11T10:28:06.792Z,12.3
2023-05-11T10:29:06.669Z,12.2
2023-05-11T10:30:06.140Z,12.3
2023-05-11T10:31:06.644Z,12.3
2023-05-11T10:32:06.816Z,12.2
2023-05-11T10:33:06.199Z,12.2
2023-05-11T10:34:06.461Z,12.2
2023-05-11T10:35:06.618Z,12.3
2023-05-11T10:36:05.899Z,12.3
2023-05-11T10:37:06.298Z,12.3
2023-05-11T10:38:06.156Z,12.4
2023-05-11T10:39:05.537Z,12.3
2023-05-11T10:40:06.224Z,12.3
2023-05-11T10:42:04.988Z,12.3
2023-05-11T10:43:06.232Z,12.3
2023-05-11T10:44:06.552Z,12.3
2023-05-11T10:45:07.035Z,12.3
2023-05-11T10:46:06.286Z,12.3
2023-05-11T10:47:06.456Z,12.3
2023-05-11T10:48:06.921Z,12.3
2023-05-11T10:49:07.035Z,12.3
2023-05-11T10:50:06.071Z,12.2
2023-05-11T10:51:06.603Z,12.2
2023-05-11T10:52:06.733Z,12.2
2023-05-11T10:53:06.063Z,12.2
2023-05-11T10:54:06.255Z,12.1
2023-05-11T10:55:06.442Z,12.2
2023-05-11T10:56:06.771Z,12.1
2023-05-11T10:59:06.425Z,12
2023-05-11T11:00:06.789Z,12
2023-05-11T11:01:07.190Z,12
2023-05-11T11:02:06.334Z,12
2023-05-11T11:03:06.511Z,12
2023-05-11T11:04:06.771Z,12
2023-05-11T11:05:06.172Z,12
2023-05-11T11:06:06.920Z,12
2023-05-11T11:07:06.975Z,12
2023-05-11T11:08:06.378Z,11
2023-05-11T11:09:06.418Z,11
2023-05-11T11:10:06.741Z,12
2023-05-11T11:11:08.773Z,12
2023-05-11T11:13:06.252Z,12
2023-05-11T11:14:05.738Z,12
2023-05-11T11:15:07.040Z,12.1
2023-05-11T11:16:06.117Z,12.1
2023-05-11T11:17:06.995Z,12.1
2023-05-11T11:18:06.141Z,12.1
2023-05-11T11:19:06.510Z,12.1
2023-05-11T11:20:06.573Z,12.1
2023-05-11T11:21:06.757Z,11
2023-05-11T11:22:06.802Z,12.1
2023-05-11T11:23:06.147Z,12
2023-05-11T11:24:06.604Z,12.1
2023-05-11T11:25:06.803Z,12.1
2023-05-11T11:26:06.855Z,12.1
2023-05-11T11:27:06.077Z,12.1
2023-05-11T11:28:06.270Z,12.1
2023-05-11T11:29:07.022Z,12.1
2023-05-11T11:30:05.947Z,12.1
2023-05-11T11:31:06.374Z,12
2023-05-11T11:32:06.468Z,12.1
2023-05-11T11:33:06.769Z,12.1
2023-05-11T11:34:06.176Z,12.1
2023-05-11T11:35:06.438Z,12.1
2023-05-11T11:36:06.392Z,12.1
2023-05-11T11:38:05.596Z,12.2
2023-05-11T11:39:06.901Z,12.2
2023-05-11T11:40:18.278Z,12.2
2023-05-11T11:42:06.377Z,12.2
2023-05-11T11:43:06.635Z,11
2023-05-11T11:44:07.154Z,11
2023-05-11T11:45:06.191Z,11
2023-05-11T11:46:06.523Z,12.2
2023-05-11T11:47:06.760Z,12.2
2023-05-11T11:48:07.067Z,11
2023-05-11T11:49:06.187Z,12.2
2023-05-11T11:50:06.265Z,12.2
2023-05-11T11:51:06.671Z,12.2
2023-05-11T11:52:06.789Z,12.2
2023-05-11T11:53:06.067Z,12.2
2023-05-11T11:54:06.442Z,12.1
2023-05-11T11:55:06.589Z,12.1
2023-05-11T11:56:06.518Z,12.2
2023-05-11T11:57:06.344Z,12.2
2023-05-11T11:58:06.730Z,12.2
2023-05-11T11:59:06.600Z,12.2
2023-05-11T12:05:06.528Z,12.2
2023-05-11T12:06:06.706Z,12.2
2023-05-11T12:07:06.330Z,12.2
2023-05-11T12:08:06.474Z,12.3
2023-05-11T12:09:06.244Z,12.3
2023-05-11T12:10:06.467Z,12.3
2023-05-11T12:12:06.641Z,12.3
2023-05-11T12:13:06.082Z,12.3
2023-05-11T12:14:06.384Z,12.3
2023-05-11T12:15:06.681Z,12.3
2023-05-11T12:16:06.277Z,12.4
2023-05-11T12:17:06.622Z,12.3
2023-05-11T12:18:07.006Z,12.3
2023-05-11T12:21:06.764Z,12.4
2023-05-11T12:22:06.898Z,12.3
2023-05-11T12:23:06.281Z,12.3
2023-05-11T12:24:06.457Z,12.4
2023-05-11T12:25:06.899Z,12.4
2023-05-11T12:26:06.274Z,11
2023-05-11T12:27:06.554Z,12.4
2023-05-11T12:28:06.908Z,12.3
2023-05-11T12:29:06.227Z,12.4
2023-05-11T12:30:06.630Z,12.3
2023-05-11T12:31:06.826Z,12.3
2023-05-11T12:32:06.158Z,12.3
2023-05-11T12:33:06.781Z,12.3
2023-05-11T12:34:05.951Z,12.4
2023-05-11T12:35:06.069Z,12.4
2023-05-11T12:36:06.570Z,12.4
2023-05-11T12:37:05.834Z,12.4
2023-05-11T12:38:06.772Z,12.4
2023-05-11T12:39:06.951Z,12.4
2023-05-11T12:40:07.110Z,12.3
2023-05-11T12:41:06.813Z,12.3
2023-05-11T12:44:06.067Z,12.4
2023-05-11T12:45:06.347Z,12.4
2023-05-11T12:46:06.811Z,12.5
2023-05-11T12:47:07.056Z,12.4
2023-05-11T12:48:06.456Z,12.4
2023-05-11T12:49:06.531Z,12.4
2023-05-11T12:50:06.660Z,12.4
2023-05-11T12:51:06.642Z,12.4
2023-05-11T12:52:06.784Z,12.5
2023-05-11T12:53:06.120Z,12.6
2023-05-11T12:54:06.184Z,12.6
2023-05-11T12:55:06.539Z,12.6
2023-05-11T12:56:06.883Z,12.7
2023-05-11T13:00:06.321Z,12.8
2023-05-11T13:01:06.612Z,12.7
2023-05-11T13:02:06.535Z,12.7
2023-05-11T13:03:06.860Z,12.7
2023-05-11T13:04:06.910Z,12.7
2023-05-11T13:05:06.495Z,12.7
2023-05-11T13:06:08.053Z,12.7
2023-05-11T13:09:06.433Z,11
2023-05-11T13:10:06.755Z,12.7
2023-05-11T13:11:06.243Z,12.7
2023-05-11T13:12:06.368Z,12.6
2023-05-11T13:13:06.604Z,12.6
2023-05-11T13:14:07.207Z,12.7
2023-05-11T13:15:06.051Z,11
2023-05-11T13:16:06.498Z,12.6
2023-05-11T13:17:06.589Z,12.6
2023-05-11T13:18:06.381Z,12.6
2023-05-11T13:19:06.590Z,12.5
2023-05-11T13:20:06.546Z,12.5
2023-05-11T13:21:06.695Z,12.5
2023-05-11T13:22:06.897Z,12.5
2023-05-11T13:23:06.205Z,12
2023-05-11T13:24:06.583Z,12.5
2023-05-11T13:25:06.802Z,12.4
2023-05-11T13:26:07.000Z,12.4
2023-05-11T13:27:06.229Z,12.4
2023-05-11T13:28:06.504Z,12
2023-05-11T13:29:15.440Z,12.4
2023-05-11T13:31:05.928Z,12.4
2023-05-11T13:32:07.042Z,12.3
2023-05-11T13:33:07.292Z,12.3
2023-05-11T13:34:05.081Z,12.4
2023-05-11T13:35:06.251Z,12
2023-05-11T13:36:06.478Z,12.3
2023-05-11T13:37:05.477Z,12.3
2023-05-11T13:38:06.299Z,12.2
2023-05-11T13:39:06.559Z,12.2
2023-05-11T13:40:06.827Z,12.2
2023-05-11T13:41:06.104Z,12.2
2023-05-11T13:42:06.427Z,12.2
2023-05-11T13:43:06.942Z,12.2
2023-05-11T13:44:05.691Z,12.2
2023-05-11T13:45:06.263Z,12.2
2023-05-11T13:46:06.553Z,12.2
2023-05-11T13:47:06.870Z,12.2
2023-05-11T13:48:06.292Z,12.3
2023-05-11T13:52:06.558Z,12.3
2023-05-11T13:53:06.033Z,12.2
2023-05-11T13:54:06.259Z,12.2
2023-05-11T13:55:06.565Z,12.2
2023-05-11T13:59:06.236Z,12.2
2023-05-11T14:00:06.317Z,12.2
2023-05-11T14:01:12.576Z,12.2
2023-05-11T14:03:05.999Z,12.2
2023-05-11T14:04:06.230Z,12.2
2023-05-11T14:05:06.674Z,12.2
2023-05-11T14:06:05.947Z,12.2
2023-05-11T14:07:06.225Z,12.2
2023-05-11T14:08:06.403Z,12.2
2023-05-11T14:09:06.728Z,12.2
2023-05-11T14:10:07.000Z,12.2
2023-05-11T14:11:06.129Z,12.2
2023-05-11T14:12:06.540Z,12
2023-05-11T14:13:06.670Z,12.2
2023-05-11T14:14:06.979Z,12.2
2023-05-11T14:15:06.312Z,12
2023-05-11T14:16:06.529Z,12.2
2023-05-11T14:17:06.746Z,12.2
2023-05-11T14:18:07.334Z,12.2
2023-05-11T14:19:06.395Z,12.3
2023-05-11T14:20:06.711Z,12
2023-05-11T14:21:06.881Z,12.3
2023-05-11T14:22:06.185Z,12.2
2023-05-11T14:23:06.569Z,12.2
2023-05-11T14:24:15.929Z,12.2
2023-05-11T14:26:06.099Z,12.2
2023-05-11T14:27:06.362Z,12.2
2023-05-11T14:28:06.587Z,11
2023-05-11T14:29:07.186Z,12.2
2023-05-11T14:30:06.187Z,12.1
2023-05-11T14:31:06.510Z,12.2
2023-05-11T14:32:06.873Z,11
2023-05-11T14:33:06.326Z,11
2023-05-11T14:34:06.505Z,12.1
2023-05-11T14:35:06.676Z,12.1
2023-05-11T14:36:06.174Z,12.1
2023-05-11T14:37:06.392Z,12.1
2023-05-11T14:38:06.655Z,12.2
2023-05-11T14:39:07.109Z,12.2
2023-05-11T14:40:06.605Z,12.2
2023-05-11T14:41:06.421Z,12.1
2023-05-11T14:42:06.853Z,12.1
2023-05-11T14:43:06.959Z,12.1
2023-05-11T14:44:05.946Z,12.1
2023-05-11T14:45:06.485Z,12.1
2023-05-11T14:46:06.382Z,12.1
2023-05-11T14:47:06.888Z,12.1
2023-05-11T14:50:06.906Z,12
2023-05-11T14:51:06.114Z,12.1
2023-05-11T14:52:06.623Z,12.1
2023-05-11T14:53:06.876Z,12.1
2023-05-11T14:54:06.222Z,12.1
2023-05-11T14:55:06.464Z,12.1
2023-05-11T14:56:06.772Z,12
2023-05-11T14:57:07.063Z,12
2023-05-11T14:58:06.246Z,12.1
2023-05-11T14:59:06.452Z,12
2023-05-11T15:00:06.788Z,12
2023-05-11T15:01:06.483Z,12
2023-05-11T15:02:06.095Z,12.1
2023-05-11T15:05:06.389Z,12.1
2023-05-11T15:06:05.032Z,12.1
2023-05-11T15:07:06.615Z,12.1
2023-05-11T15:08:12.891Z,12.1
2023-05-11T15:09:05.112Z,12.1
2023-05-11T15:10:06.669Z,12.1
2023-05-11T15:11:06.737Z,12.1
2023-05-11T15:12:07.057Z,12.1
2023-05-11T15:13:06.368Z,12.1
2023-05-11T15:14:06.968Z,12.1
2023-05-11T15:15:06.090Z,12
2023-05-11T15:16:06.365Z,12
2023-05-11T15:20:06.256Z,12
2023-05-11T15:21:06.613Z,12